Stephenville, Texas
Current Conditions -  °F | °C
As of 8:35 AM on Friday 28 Nov 2014 (Local Time) from KSEP Reporting Station
Scattered Clouds Scattered Clouds  
Wind Chill: 39°   Ceiling: Unl
Heat Index: 44°   Visibility: 10mi
Dew Point: 36°   Wind: 8mph
Humidity: 73%   Direction: 190°S
Pressure: 30.26"   Gusts: NA
Location:  32.22°N, 98.2°W
Report Text: KSEP 281435Z AUTO 19007KT 10SM SCT009 07/02 A3026 RMK AO2 T00660021
Loading
Personal Weather Stations






























Interactive Weather Map New forecast layout! Learn more

10-Day Weather Forecast

Advertisements
Track Severe Weather on mobile